Time;durP1;ratioP1;P1;durP2;ratioP2;P2;SDS_P1;SDS_P2;PMS_P1;PMS_P2;Temp;Humidity;BMP_temperature;BMP_pressure;BME280_temperature;BME280_humidity;BME280_pressure;Samples;Min_cycle;Max_cycle;Signal;HPM_P1;HPM_P2
2023/09/08 00:01:17;;;;;;;16.67;11.05;;;;;;;23.84;67.50;101762.81;5032990;28;20029;-45
2023/09/08 00:03:43;;;;;;;13.50;10.85;;;;;;;23.82;67.26;101764.63;5033089;28;20056;-44
2023/09/08 00:06:08;;;;;;;12.57;10.05;;;;;;;23.86;67.51;101760.94;5032656;28;20029;-48
2023/09/08 00:08:33;;;;;;;13.55;10.65;;;;;;;23.86;67.16;101752.97;5032986;28;20033;-46
2023/09/08 00:10:59;;;;;;;12.43;9.63;;;;;;;23.91;67.28;101761.69;5032267;28;20033;-43
2023/09/08 00:13:24;;;;;;;12.38;9.23;;;;;;;23.96;66.87;101756.25;5033282;28;20038;-49
2023/09/08 00:15:49;;;;;;;11.57;8.95;;;;;;;23.99;67.22;101761.47;5032812;28;20034;-43
2023/09/08 00:18:15;;;;;;;12.57;9.77;;;;;;;24.01;66.39;101762.31;5032313;28;20068;-46
2023/09/08 00:20:41;;;;;;;11.85;9.70;;;;;;;24.01;66.66;101763.19;5031271;28;20470;-45
2023/09/08 00:23:07;;;;;;;11.63;9.13;;;;;;;24.02;66.26;101764.97;5032283;28;20048;-47
2023/09/08 00:25:34;;;;;;;16.92;9.23;;;;;;;24.02;66.09;101766.75;5032546;28;20045;-44
2023/09/08 00:27:59;;;;;;;15.50;9.35;;;;;;;24.01;66.04;101771.19;5032125;28;20087;-45
2023/09/08 00:30:25;;;;;;;11.50;9.50;;;;;;;24.03;66.01;101771.16;5032811;28;20037;-46
2023/09/08 00:32:50;;;;;;;11.77;9.85;;;;;;;24.05;65.78;101767.50;5032769;28;20121;-44
2023/09/08 00:35:16;;;;;;;14.77;11.20;;;;;;;24.04;65.87;101768.44;5032304;28;20057;-45
2023/09/08 00:37:41;;;;;;;15.02;10.57;;;;;;;24.05;65.52;101761.31;5032374;28;20128;-44
2023/09/08 00:40:10;;;;;;;14.57;10.60;;;;;;;24.10;65.52;101764.72;5031630;28;20046;-44
2023/09/08 00:42:36;;;;;;;15.40;11.45;;;;;;;24.10;65.56;101772.72;5032662;28;20404;-44
2023/09/08 00:45:01;;;;;;;17.20;11.82;;;;;;;24.00;65.98;101772.09;5031328;28;20037;-44
2023/09/08 00:47:28;;;;;;;14.77;11.63;;;;;;;24.16;64.87;101768.09;5032579;28;20038;-46
2023/09/08 00:49:53;;;;;;;16.15;12.27;;;;;;;24.20;65.19;101768.91;5032318;28;20063;-46
2023/09/08 00:52:18;;;;;;;14.25;11.73;;;;;;;24.10;65.00;101759.38;5032783;28;20115;-45
2023/09/08 00:54:44;;;;;;;15.35;11.98;;;;;;;24.15;64.51;101758.34;5032031;28;20037;-45
2023/09/08 00:57:09;;;;;;;16.58;12.63;;;;;;;24.01;65.41;101757.00;5032705;28;20048;-43
2023/09/08 00:59:35;;;;;;;17.60;12.27;;;;;;;24.24;64.68;101766.13;5032743;28;20411;-48
2023/09/08 01:02:02;;;;;;;14.82;11.68;;;;;;;24.20;64.64;101756.47;5031493;28;20053;-47
2023/09/08 01:04:28;;;;;;;16.20;12.50;;;;;;;24.13;64.90;101759.31;5031934;28;20154;-44
2023/09/08 01:06:54;;;;;;;16.17;12.93;;;;;;;24.12;64.78;101752.22;5031181;28;20038;-46
2023/09/08 01:09:20;;;;;;;17.45;13.30;;;;;;;24.06;65.17;101758.63;5031961;28;20479;-44
2023/09/08 01:11:46;;;;;;;19.50;13.77;;;;;;;23.95;65.22;101749.19;5032505;28;20049;-46
2023/09/08 01:14:12;;;;;;;17.10;13.45;;;;;;;23.92;65.17;101755.44;5031816;28;20558;-44
2023/09/08 01:16:40;;;;;;;19.00;14.10;;;;;;;23.71;65.81;101761.38;5032154;28;20403;-46
2023/09/08 01:19:11;;;;;;;17.85;14.27;;;;;;;23.80;65.30;101754.00;5031593;28;20057;-43
2023/09/08 01:21:59;;;;;;;19.23;14.00;;;;;;;24.22;63.81;101759.94;5032257;28;20099;-44
2023/09/08 01:25:02;;;;;;;19.08;13.95;;;;;;;24.31;63.38;101761.47;5031733;28;20041;-45
2023/09/08 01:27:30;;;;;;;19.88;13.88;;;;;;;23.96;65.07;101758.94;5031957;28;20099;-45
2023/09/08 01:29:56;;;;;;;15.02;12.25;;;;;;;24.09;64.34;101763.00;5031047;28;20510;-47
2023/09/08 01:32:22;;;;;;;20.92;13.15;;;;;;;24.03;64.44;101763.16;5031441;28;20177;-47
2023/09/08 01:34:47;;;;;;;17.13;11.32;;;;;;;23.98;64.37;101759.72;5031158;28;20057;-44
2023/09/08 01:37:13;;;;;;;18.20;13.00;;;;;;;23.91;64.48;101764.34;5030760;28;20029;-44
2023/09/08 01:39:38;;;;;;;17.02;12.18;;;;;;;23.77;64.91;101762.09;5032801;28;20037;-43
2023/09/08 01:42:03;;;;;;;16.27;12.70;;;;;;;23.66;65.50;101764.19;5033044;28;20128;-45
2023/09/08 01:44:29;;;;;;;17.60;13.30;;;;;;;23.55;65.90;101757.38;5033804;28;20447;-43
2023/09/08 01:46:56;;;;;;;16.98;12.93;;;;;;;23.44;66.46;101755.81;5033760;28;20044;-42
2023/09/08 01:49:25;;;;;;;16.38;12.63;;;;;;;23.48;66.12;101754.00;5031829;28;20400;-44
2023/09/08 01:51:50;;;;;;;22.10;13.60;;;;;;;23.38;67.18;101748.00;5031687;28;20069;-42
2023/09/08 01:54:16;;;;;;;19.90;13.98;;;;;;;23.40;67.37;101750.63;5031563;28;20400;-45
2023/09/08 01:56:41;;;;;;;21.15;14.93;;;;;;;23.31;67.87;101753.50;5031318;28;20120;-43
2023/09/08 01:59:07;;;;;;;21.85;14.95;;;;;;;23.27;68.10;101747.41;5030591;28;20071;-47
2023/09/08 02:01:32;;;;;;;20.42;14.88;;;;;;;23.34;67.83;101746.34;5030888;28;20052;-43
2023/09/08 02:03:57;;;;;;;18.08;14.73;;;;;;;23.31;67.81;101754.38;5028862;28;20619;-47
2023/09/08 02:06:23;;;;;;;17.95;14.18;;;;;;;23.71;66.17;101754.28;5030637;28;20060;-46
2023/09/08 02:08:48;;;;;;;19.52;15.02;;;;;;;23.59;66.67;101749.28;5030187;28;20042;-45
2023/09/08 02:11:13;;;;;;;23.75;14.98;;;;;;;23.78;65.63;101755.88;5030010;28;20033;-45
2023/09/08 02:13:42;;;;;;;21.27;15.20;;;;;;;23.80;65.58;101753.13;5030807;28;20038;-44
2023/09/08 02:16:07;;;;;;;19.05;13.90;;;;;;;23.78;65.40;101750.53;5030359;28;20515;-44
2023/09/08 02:18:33;;;;;;;20.52;14.73;;;;;;;23.61;66.65;101751.88;5030762;28;20123;-44
2023/09/08 02:20:58;;;;;;;19.42;15.38;;;;;;;23.48;67.38;101750.47;5030790;28;20187;-43
2023/09/08 02:23:23;;;;;;;20.98;15.70;;;;;;;23.27;67.81;101747.41;5030560;28;20087;-42
2023/09/08 02:25:49;;;;;;;22.23;15.77;;;;;;;23.48;67.27;101748.69;5030553;28;20033;-43
2023/09/08 02:28:14;;;;;;;19.75;15.52;;;;;;;23.63;66.90;101748.28;5029694;28;20033;-44
2023/09/08 02:30:39;;;;;;;20.23;15.50;;;;;;;23.49;67.28;101750.41;5029997;28;20037;-44
2023/09/08 02:33:05;;;;;;;24.95;16.23;;;;;;;23.41;67.15;101745.28;5029807;28;20073;-44
2023/09/08 02:35:30;;;;;;;23.42;15.88;;;;;;;23.19;68.17;101740.53;5030357;28;20076;-45
2023/09/08 02:37:55;;;;;;;19.65;15.43;;;;;;;23.42;67.43;101746.16;5029916;28;20088;-45
2023/09/08 02:40:21;;;;;;;21.80;15.50;;;;;;;23.63;66.32;101742.06;5030143;28;20044;-45
2023/09/08 02:42:46;;;;;;;21.65;16.08;;;;;;;23.58;66.51;101738.66;5029888;28;20567;-45
2023/09/08 02:45:11;;;;;;;21.25;15.35;;;;;;;23.67;66.05;101741.06;5029319;28;20111;-45
2023/09/08 02:47:37;;;;;;;22.55;15.18;;;;;;;23.67;65.65;101749.03;5029989;28;20044;-44
2023/09/08 02:50:04;;;;;;;19.88;16.00;;;;;;;23.61;66.03;101739.44;5029401;28;20535;-43
2023/09/08 02:52:30;;;;;;;22.17;15.65;;;;;;;23.54;66.69;101739.66;5029749;28;20645;-45
2023/09/08 02:54:55;;;;;;;23.45;15.75;;;;;;;23.58;66.04;101738.66;5029610;28;20045;-43
2023/09/08 02:57:21;;;;;;;21.63;15.77;;;;;;;23.48;66.45;101740.72;5029762;28;20033;-44
2023/09/08 02:59:56;;;;;;;20.45;15.57;;;;;;;23.54;66.34;101739.66;5029563;28;20504;-45
2023/09/08 03:02:21;;;;;;;19.55;15.05;;;;;;;23.46;66.52;101731.84;5029483;28;20080;-44
2023/09/08 03:04:47;;;;;;;21.27;15.90;;;;;;;23.25;67.61;101735.91;5029418;28;20033;-44
2023/09/08 03:07:12;;;;;;;23.70;16.63;;;;;;;23.37;67.00;101740.06;5028587;28;20045;-44
2023/09/08 03:09:37;;;;;;;21.77;16.33;;;;;;;23.38;66.59;101736.47;5029427;28;20056;-44
2023/09/08 03:12:03;;;;;;;22.13;15.90;;;;;;;23.38;66.55;101736.47;5027712;28;20052;-46
2023/09/08 03:14:28;;;;;;;21.10;16.30;;;;;;;23.34;66.54;101734.81;5029761;28;20060;-46
2023/09/08 03:16:54;;;;;;;19.58;15.57;;;;;;;23.32;66.53;101734.84;5029306;28;20133;-45
2023/09/08 03:19:19;;;;;;;21.95;16.83;;;;;;;23.10;67.70;101738.97;5029287;28;20036;-45
2023/09/08 03:21:44;;;;;;;22.20;15.57;;;;;;;23.04;67.95;101728.50;5029587;28;20450;-44
2023/09/08 03:24:10;;;;;;;23.50;15.38;;;;;;;23.02;67.69;101732.97;5029499;28;20061;-43
2023/09/08 03:26:35;;;;;;;19.65;14.70;;;;;;;22.94;67.69;101729.59;5030082;28;20033;-44
2023/09/08 03:29:00;;;;;;;22.70;15.90;;;;;;;22.86;68.25;101726.28;5030048;28;20042;-43
2023/09/08 03:31:26;;;;;;;19.95;15.15;;;;;;;22.80;68.45;101721.09;5030273;28;20033;-44
2023/09/08 03:33:51;;;;;;;22.13;15.23;;;;;;;22.74;68.84;101727.44;5029218;28;20411;-45
2023/09/08 03:36:16;;;;;;;18.80;13.88;;;;;;;22.70;68.74;101719.53;5029391;28;20048;-45
2023/09/08 03:38:42;;;;;;;20.98;14.90;;;;;;;22.64;69.16;101723.19;5029396;28;20040;-44
2023/09/08 03:41:07;;;;;;;20.27;15.00;;;;;;;22.61;69.08;101717.97;5028697;28;20121;-47
2023/09/08 03:43:32;;;;;;;22.15;15.10;;;;;;;22.50;69.92;101717.34;5028954;28;20034;-46
2023/09/08 03:45:58;;;;;;;20.48;14.80;;;;;;;22.60;70.02;101717.09;5028925;28;20502;-42
2023/09/08 03:48:23;;;;;;;20.58;14.98;;;;;;;22.47;71.20;101715.63;5029005;28;20061;-44
2023/09/08 03:50:49;;;;;;;20.48;15.05;;;;;;;22.36;71.36;101714.09;5029176;28;20060;-44
2023/09/08 03:53:14;;;;;;;20.58;14.85;;;;;;;22.51;70.44;101711.09;5028817;28;20033;-45
2023/09/08 03:55:39;;;;;;;21.63;14.80;;;;;;;22.41;71.05;101713.09;5029133;28;20459;-44
2023/09/08 03:58:05;;;;;;;19.50;14.55;;;;;;;22.72;69.64;101721.28;5028312;28;20120;-45
2023/09/08 04:00:30;;;;;;;18.33;14.25;;;;;;;22.86;68.95;101718.31;5029280;28;20162;-46
2023/09/08 04:02:56;;;;;;;18.60;13.75;;;;;;;22.72;69.45;101720.38;5028691;28;20034;-45
2023/09/08 04:05:22;;;;;;;19.65;14.30;;;;;;;22.65;70.00;101716.97;5029013;28;20030;-44
2023/09/08 04:07:47;;;;;;;20.83;14.85;;;;;;;22.50;70.19;101717.34;5029080;28;20449;-45
2023/09/08 04:10:13;;;;;;;18.23;13.93;;;;;;;22.68;69.89;101711.59;5028944;28;20041;-43
2023/09/08 04:12:42;;;;;;;17.25;14.30;;;;;;;22.74;69.40;101718.59;5028897;28;20026;-43
2023/09/08 04:15:08;;;;;;;17.08;13.75;;;;;;;22.91;68.44;101722.59;5028943;28;20416;-43
2023/09/08 04:17:35;;;;;;;17.90;13.68;;;;;;;22.95;68.32;101726.03;5029267;28;20115;-42
2023/09/08 04:20:01;;;;;;;19.35;13.60;;;;;;;22.94;68.16;101719.84;5030181;28;20033;-45
2023/09/08 04:22:27;;;;;;;16.05;13.23;;;;;;;22.77;68.37;101726.47;5032908;28;20087;-47
2023/09/08 04:24:54;;;;;;;17.98;13.98;;;;;;;22.61;69.26;101723.28;5032714;28;20037;-46
2023/09/08 04:27:19;;;;;;;20.05;14.10;;;;;;;22.80;68.77;101724.66;5032170;28;20048;-44
2023/09/08 04:29:44;;;;;;;17.05;13.30;;;;;;;22.79;68.46;101724.66;5032596;28;20038;-46
2023/09/08 04:32:10;;;;;;;16.80;12.98;;;;;;;22.79;68.33;101719.34;5031668;28;20037;-44
2023/09/08 04:34:40;;;;;;;19.30;14.38;;;;;;;22.76;68.51;101720.28;5032320;28;20124;-45
2023/09/08 04:37:05;;;;;;;17.55;13.10;;;;;;;22.72;68.24;101713.31;5031702;28;20124;-45
2023/09/08 04:39:31;;;;;;;17.30;12.77;;;;;;;22.72;68.57;101717.72;5032407;28;20129;-43
2023/09/08 04:41:57;;;;;;;20.50;13.95;;;;;;;22.61;68.62;101717.97;5032128;28;20148;-43
2023/09/08 04:44:22;;;;;;;19.38;12.75;;;;;;;22.59;68.94;101717.13;5032046;28;20504;-45
2023/09/08 04:46:48;;;;;;;17.05;12.73;;;;;;;22.54;68.82;101719.88;5031841;28;20029;-45
2023/09/08 04:49:13;;;;;;;18.80;12.43;;;;;;;22.54;68.62;101724.31;5031766;28;20443;-44
2023/09/08 04:51:38;;;;;;;19.13;13.25;;;;;;;22.48;69.38;101722.69;5030876;28;20037;-43
2023/09/08 04:54:04;;;;;;;18.13;13.35;;;;;;;22.46;69.20;101718.31;5031722;28;20491;-43
2023/09/08 04:56:29;;;;;;;19.10;13.10;;;;;;;22.41;69.59;101723.72;5032129;28;20037;-40
2023/09/08 04:58:55;;;;;;;18.17;13.32;;;;;;;22.37;69.49;101722.06;5031734;28;20046;-44
2023/09/08 05:01:21;;;;;;;18.17;12.82;;;;;;;22.33;69.64;101728.31;5031678;28;20033;-43
2023/09/08 05:03:46;;;;;;;17.15;13.27;;;;;;;22.29;69.84;101731.97;5032159;28;20412;-44
2023/09/08 05:06:13;;;;;;;21.88;14.90;;;;;;;21.80;72.73;101738.22;5031671;28;20037;-44
2023/09/08 05:08:39;;;;;;;20.08;13.52;;;;;;;21.89;73.11;101738.97;5032407;28;20072;-44
2023/09/08 05:11:04;;;;;;;17.27;12.85;;;;;;;22.12;71.39;101740.28;5031005;28;20034;-46
2023/09/08 05:13:30;;;;;;;16.15;12.70;;;;;;;22.20;71.00;101740.13;5032266;28;20034;-47
2023/09/08 05:15:59;;;;;;;16.92;12.43;;;;;;;22.19;70.90;101725.09;5030935;28;20087;-45
2023/09/08 05:18:26;;;;;;;16.40;11.93;;;;;;;22.17;70.96;101729.56;5031454;28;20147;-50
2023/09/08 05:20:52;;;;;;;16.70;11.85;;;;;;;22.14;71.42;101734.94;5031381;28;20030;-45
2023/09/08 05:23:18;;;;;;;22.42;13.30;;;;;;;22.11;71.29;101742.97;5031039;28;20041;-44
2023/09/08 05:25:44;;;;;;;19.05;13.18;;;;;;;22.15;71.42;101736.69;5031457;28;20041;-51
2023/09/08 05:28:09;;;;;;;17.70;12.13;;;;;;;22.21;71.20;101739.19;5030571;28;20055;-48
2023/09/08 05:30:35;;;;;;;17.08;12.82;;;;;;;22.24;70.92;101734.72;5030921;28;20033;-45
2023/09/08 05:33:00;;;;;;;16.27;12.10;;;;;;;22.25;71.39;101736.47;5029199;28;20030;-43
2023/09/08 05:35:25;;;;;;;17.63;12.80;;;;;;;22.29;71.29;101741.72;5031140;28;20068;-49
2023/09/08 05:37:51;;;;;;;20.65;14.10;;;;;;;22.30;71.35;101739.03;5029726;28;20573;-48
2023/09/08 05:40:16;;;;;;;19.15;13.43;;;;;;;22.34;71.36;101738.03;5030778;28;20034;-45
2023/09/08 05:42:41;;;;;;;19.67;13.70;;;;;;;22.41;71.11;101734.34;5031192;28;20037;-44
2023/09/08 05:45:07;;;;;;;18.38;13.45;;;;;;;22.50;71.13;101736.81;5030645;28;20589;-44
2023/09/08 05:47:32;;;;;;;19.48;12.57;;;;;;;22.41;71.46;101739.66;5030980;28;20115;-49
2023/09/08 05:49:57;;;;;;;20.67;13.48;;;;;;;22.39;71.61;101741.47;5030202;28;20175;-43
2023/09/08 05:52:23;;;;;;;16.95;13.05;;;;;;;22.64;70.54;101744.47;5031033;28;20124;-45
2023/09/08 05:54:48;;;;;;;18.80;12.43;;;;;;;22.88;69.85;101749.25;5030857;28;20037;-44
2023/09/08 05:57:13;;;;;;;16.73;12.75;;;;;;;23.00;69.40;101753.41;5030390;28;20042;-45
2023/09/08 05:59:39;;;;;;;15.55;11.90;;;;;;;23.00;69.14;101748.94;5030551;28;20120;-46
2023/09/08 06:02:04;;;;;;;16.65;12.80;;;;;;;23.10;68.68;101752.28;5029870;28;20034;-47
2023/09/08 06:04:32;;;;;;;18.85;12.20;;;;;;;23.20;68.81;101763.56;5030427;28;20041;-46
2023/09/08 06:06:57;;;;;;;18.17;11.88;;;;;;;23.26;68.42;101755.41;5028605;28;20128;-49
2023/09/08 06:09:22;;;;;;;15.98;12.77;;;;;;;23.36;68.19;101757.81;5030602;28;20535;-46
2023/09/08 06:11:48;;;;;;;18.38;12.48;;;;;;;23.36;67.81;101759.63;5030382;28;20392;-46
2023/09/08 06:14:13;;;;;;;16.00;12.40;;;;;;;23.40;67.85;101763.94;5029533;28;20037;-45
2023/09/08 06:16:39;;;;;;;17.65;12.98;;;;;;;23.54;67.53;101767.16;5030218;28;20040;-47
2023/09/08 06:19:05;;;;;;;18.15;13.27;;;;;;;23.61;67.33;101768.72;5029658;28;20034;-48
2023/09/08 06:21:30;;;;;;;19.73;12.93;;;;;;;23.61;67.33;101765.19;5030045;28;20056;-46
2023/09/08 06:23:56;;;;;;;18.23;12.77;;;;;;;23.73;67.22;101763.06;5029350;28;20451;-45
2023/09/08 06:26:21;;;;;;;18.40;13.48;;;;;;;23.76;67.42;101764.78;5029926;28;20042;-44
2023/09/08 06:28:46;;;;;;;19.15;13.45;;;;;;;23.90;67.29;101762.63;5029709;28;20037;-48
2023/09/08 06:31:12;;;;;;;17.45;12.70;;;;;;;24.06;67.75;101758.63;5029771;28;20427;-43
2023/09/08 06:33:37;;;;;;;16.80;12.77;;;;;;;24.74;66.68;101752.19;5030300;28;20033;-44
2023/09/08 06:36:03;;;;;;;20.85;14.10;;;;;;;26.09;59.95;101761.81;5029394;28;20037;-47
2023/09/08 06:38:31;;;;;;;22.05;15.00;;;;;;;27.44;54.93;101753.75;5029584;28;20037;-49
2023/09/08 06:40:56;;;;;;;26.38;17.25;;;;;;;28.34;50.97;101749.78;5029825;28;20038;-46
2023/09/08 06:43:22;;;;;;;23.15;16.73;;;;;;;29.24;47.80;101753.44;5029317;28;20103;-47
2023/09/08 06:45:50;;;;;;;25.30;15.63;;;;;;;30.15;46.66;101751.38;5029802;28;20072;-47
2023/09/08 06:48:16;;;;;;;22.63;15.27;;;;;;;30.83;43.17;101760.16;5029469;28;20034;-45
2023/09/08 06:50:41;;;;;;;18.40;13.73;;;;;;;31.29;43.91;101761.91;5029636;28;20025;-45
2023/09/08 06:53:07;;;;;;;20.63;15.05;;;;;;;31.49;43.07;101757.16;5029141;28;20400;-45
2023/09/08 06:55:32;;;;;;;18.15;13.65;;;;;;;32.08;41.54;101762.47;5029580;28;20038;-46
2023/09/08 06:57:58;;;;;;;18.88;14.00;;;;;;;32.81;39.18;101749.75;5028263;28;20111;-50
2023/09/08 07:00:23;;;;;;;23.80;15.82;;;;;;;32.55;39.39;101761.34;5029582;28;20172;-44
2023/09/08 07:02:50;;;;;;;19.23;13.90;;;;;;;33.00;38.05;101754.78;5029552;28;20706;-46
2023/09/08 07:05:16;;;;;;;19.27;13.95;;;;;;;33.34;37.66;101756.13;5028906;28;20030;-47
2023/09/08 07:07:41;;;;;;;18.98;14.05;;;;;;;33.60;37.33;101757.03;5029407;28;20038;-44
2023/09/08 07:10:08;;;;;;;18.02;14.10;;;;;;;33.30;37.63;101752.72;5028794;28;20045;-49
2023/09/08 07:12:33;;;;;;;24.42;15.07;;;;;;;32.92;38.37;101746.34;5029345;28;20484;-46
2023/09/08 07:15:02;;;;;;;20.50;15.32;;;;;;;32.26;39.08;101759.66;5028744;28;20087;-48
2023/09/08 07:17:27;;;;;;;19.45;13.85;;;;;;;33.51;37.53;101755.81;5029028;28;20128;-47
2023/09/08 07:19:53;;;;;;;18.30;14.35;;;;;;;34.08;35.72;101758.16;5029495;28;20125;-43
2023/09/08 07:22:18;;;;;;;17.13;13.50;;;;;;;33.18;38.73;101763.50;5028772;28;20038;-47
2023/09/08 07:24:44;;;;;;;19.83;14.32;;;;;;;34.26;36.10;101758.72;5029387;28;20037;-47
2023/09/08 07:27:10;;;;;;;19.10;14.98;;;;;;;32.77;39.58;101756.31;5028830;28;20038;-46
2023/09/08 07:29:35;;;;;;;18.92;14.93;;;;;;;32.76;39.63;101756.41;5033134;28;20377;-49
2023/09/08 07:32:00;;;;;;;19.13;15.48;;;;;;;31.98;41.07;101772.13;5031868;28;20038;-46
2023/09/08 07:34:26;;;;;;;20.02;16.38;;;;;;;31.87;41.79;101771.94;5030362;28;20038;-44
2023/09/08 07:36:51;;;;;;;22.77;16.45;;;;;;;32.35;41.12;101768.00;5029202;28;20038;-49
2023/09/08 07:39:16;;;;;;;19.75;15.77;;;;;;;32.28;41.33;101763.97;5028826;28;20037;-44
2023/09/08 07:41:42;;;;;;;28.98;17.33;;;;;;;31.39;43.26;101764.94;5029279;28;20033;-44
2023/09/08 07:44:07;;;;;;;21.17;17.27;;;;;;;31.23;42.92;101764.13;5028555;28;20033;-48
2023/09/08 07:46:33;;;;;;;23.05;17.00;;;;;;;30.59;45.29;101775.88;5029329;28;20436;-46
2023/09/08 07:48:59;;;;;;;22.40;15.93;;;;;;;30.95;44.23;101768.38;5029079;28;20048;-47
2023/09/08 07:51:25;;;;;;;23.40;17.80;;;;;;;30.21;46.16;101770.75;5029316;28;20092;-44
2023/09/08 07:53:51;;;;;;;25.10;18.30;;;;;;;29.64;48.50;101761.22;5030508;28;20041;-44
2023/09/08 07:56:17;;;;;;;26.30;18.20;;;;;;;28.96;50.78;101764.72;5031906;28;20489;-42
2023/09/08 07:58:42;;;;;;;22.63;18.58;;;;;;;28.26;53.22;101765.34;5032600;28;20064;-51
2023/09/08 08:01:07;;;;;;;29.25;19.13;;;;;;;28.38;53.53;101761.22;5032678;28;20037;-46
2023/09/08 08:03:35;;;;;;;24.25;18.70;;;;;;;28.42;53.41;101763.66;5033530;28;20041;-46
2023/09/08 08:06:00;;;;;;;25.55;17.98;;;;;;;28.31;54.57;101763.31;5033028;28;20041;-45
2023/09/08 08:08:26;;;;;;;27.15;18.92;;;;;;;28.33;54.68;101763.25;5033299;28;20046;-45
2023/09/08 08:10:51;;;;;;;26.83;18.75;;;;;;;28.44;53.75;101772.53;5033263;28;20036;-43
2023/09/08 08:13:17;;;;;;;25.95;17.90;;;;;;;28.66;53.50;101769.72;5032641;28;20120;-50
2023/09/08 08:15:45;;;;;;;25.00;18.23;;;;;;;28.70;53.64;101776.66;5033500;28;20087;-44
2023/09/08 08:18:10;;;;;;;23.58;18.17;;;;;;;28.77;53.47;101774.59;5032715;28;20528;-43
2023/09/08 08:20:36;;;;;;;27.27;19.67;;;;;;;28.83;53.18;101777.84;5033354;28;20041;-45
2023/09/08 08:23:02;;;;;;;24.23;17.95;;;;;;;28.93;53.42;101771.09;5032348;28;20076;-49
2023/09/08 08:25:28;;;;;;;28.50;19.35;;;;;;;28.86;53.97;101775.00;5032427;28;20479;-51
2023/09/08 08:27:53;;;;;;;22.13;16.85;;;;;;;28.96;53.60;101773.63;5031856;28;20044;-46
2023/09/08 08:30:19;;;;;;;29.33;20.20;;;;;;;28.97;53.37;101771.81;5032644;28;20041;-45
2023/09/08 08:32:45;;;;;;;30.38;19.02;;;;;;;29.07;53.48;101772.22;5031304;28;20034;-47
2023/09/08 08:35:11;;;;;;;27.63;19.08;;;;;;;28.80;54.20;101777.13;5032302;28;20041;-50
2023/09/08 08:37:36;;;;;;;31.63;19.67;;;;;;;28.57;55.02;101775.50;5033051;28;20516;-47
2023/09/08 08:40:03;;;;;;;22.02;16.73;;;;;;;29.07;54.83;101777.59;5032412;28;20033;-46
2023/09/08 08:42:32;;;;;;;27.13;19.77;;;;;;;28.96;54.27;101770.06;5032664;28;20068;-48
2023/09/08 08:44:58;;;;;;;25.50;18.48;;;;;;;29.14;53.48;101779.03;5031665;28;20044;-44
2023/09/08 08:47:25;;;;;;;26.27;19.08;;;;;;;28.89;54.97;101777.56;5032432;28;20037;-45
2023/09/08 08:49:53;;;;;;;28.02;18.80;;;;;;;28.79;55.32;101778.94;5032242;28;20041;-49
2023/09/08 08:52:19;;;;;;;32.00;18.48;;;;;;;28.87;55.13;101778.56;5031716;28;20123;-44
2023/09/08 08:54:45;;;;;;;26.05;17.80;;;;;;;29.12;55.11;101784.47;5031960;28;20034;-47
2023/09/08 08:57:12;;;;;;;26.85;15.15;;;;;;;29.30;54.98;101777.31;5031673;28;20179;-48
2023/09/08 08:59:37;;;;;;;26.33;17.45;;;;;;;29.35;54.08;101776.16;5031925;28;20072;-50
2023/09/08 09:02:04;;;;;;;23.65;17.08;;;;;;;29.19;54.45;101779.66;5031465;28;20142;-42
2023/09/08 09:04:29;;;;;;;25.33;17.45;;;;;;;29.29;54.06;101778.25;5032048;28;20413;-48
2023/09/08 09:06:55;;;;;;;23.02;16.60;;;;;;;29.45;54.21;101781.97;5030491;28;20033;-43
2023/09/08 09:09:21;;;;;;;25.00;16.83;;;;;;;29.48;54.50;101786.28;5031588;28;20037;-46
2023/09/08 09:11:46;;;;;;;25.73;16.58;;;;;;;29.58;53.39;101783.03;5031615;28;20079;-46
2023/09/08 09:14:12;;;;;;;22.23;15.60;;;;;;;29.76;53.35;101782.09;5030957;28;20040;-53
2023/09/08 09:16:41;;;;;;;27.27;16.48;;;;;;;29.90;52.45;101784.06;5031622;28;20100;-49
2023/09/08 09:19:06;;;;;;;22.02;15.30;;;;;;;30.04;51.81;101778.84;5030807;28;20064;-47
2023/09/08 09:21:47;;;;;;;27.92;16.52;;;;;;;29.88;52.88;101785.97;5031278;28;20139;-44
2023/09/08 09:24:17;;;;;;;23.92;14.27;;;;;;;30.26;51.93;101775.84;5031644;28;20037;-45
2023/09/08 09:26:43;;;;;;;18.42;13.93;;;;;;;30.37;52.31;101788.75;5031414;28;20120;-45
2023/09/08 09:32:34;;;;;;;23.35;15.23;;;;;;;30.67;50.29;101778.13;5029676;28;20048;-79
2023/09/08 09:35:01;;;;;;;23.85;14.13;;;;;;;30.46;50.64;101781.03;5012860;28;20088;-79
2023/09/08 09:37:29;;;;;;;17.30;12.95;;;;;;;30.83;49.91;101770.91;5016053;28;20045;-79
2023/09/08 09:39:55;;;;;;;18.70;13.07;;;;;;;30.77;50.55;101777.53;5015591;28;20034;-79
2023/09/08 09:42:23;;;;;;;21.33;13.90;;;;;;;30.52;49.97;101779.84;5013556;28;20364;-79
2023/09/08 09:44:51;;;;;;;16.08;11.60;;;;;;;30.68;50.50;101774.50;5013375;28;20107;-79
2023/09/08 09:47:17;;;;;;;17.73;13.60;;;;;;;30.69;49.54;101776.19;5012304;28;20121;-79
2023/09/08 09:49:46;;;;;;;15.73;11.18;;;;;;;31.05;50.45;101779.53;5011493;28;20101;-80
2023/09/08 09:52:14;;;;;;;20.05;14.20;;;;;;;31.04;48.87;101781.34;5011689;28;20037;-78
2023/09/08 09:54:42;;;;;;;16.52;12.23;;;;;;;31.23;48.31;101769.53;5012807;28;20088;-79
2023/09/08 09:57:14;;;;;;;15.85;10.65;;;;;;;31.44;48.20;101770.94;5012846;28;20042;-77
2023/09/08 09:59:43;;;;;;;22.47;12.93;;;;;;;30.95;50.07;101765.69;5012734;28;20048;-79
2023/09/08 10:02:12;;;;;;;21.92;13.57;;;;;;;31.11;49.59;101768.38;5013965;28;20487;-78
2023/09/08 10:04:41;;;;;;;15.55;11.65;;;;;;;31.36;49.47;101760.59;5016295;28;20046;-79
2023/09/08 10:07:07;;;;;;;20.80;13.00;;;;;;;31.63;47.28;101768.91;5018013;28;20121;-78
2023/09/08 10:09:33;;;;;;;17.25;11.52;;;;;;;31.82;48.02;101768.66;5019266;28;20064;-78
2023/09/08 10:12:03;;;;;;;19.70;12.07;;;;;;;31.84;48.63;101766.69;5021210;28;20036;-78
2023/09/08 10:14:31;;;;;;;17.50;12.05;;;;;;;31.93;47.71;101766.16;5011292;28;20033;-78
2023/09/08 10:17:01;;;;;;;16.15;12.48;;;;;;;31.77;47.46;101765.38;5009974;28;20499;-78
2023/09/08 10:19:27;;;;;;;16.75;11.77;;;;;;;32.12;46.76;101771.28;5011616;28;20138;-79
2023/09/08 10:21:59;;;;;;;16.48;11.82;;;;;;;32.24;46.32;101767.84;5011340;28;20045;-79
2023/09/08 10:24:32;;;;;;;15.48;11.18;;;;;;;32.29;47.02;101776.50;5011962;28;20061;-78
2023/09/08 10:27:08;;;;;;;19.85;14.43;;;;;;;31.13;49.92;101776.38;5013669;28;20038;-77
2023/09/08 10:29:42;;;;;;;14.27;10.60;;;;;;;31.65;48.48;101772.38;5012533;28;20633;-78
2023/09/08 10:32:12;;;;;;;18.25;10.48;;;;;;;31.84;47.86;101777.50;5011513;28;20034;-78
2023/09/08 10:34:42;;;;;;;15.48;11.02;;;;;;;31.96;47.71;101776.72;5012470;28;20029;-77
2023/09/08 10:37:25;;;;;;;13.75;10.10;;;;;;;32.22;46.12;101767.06;5010511;28;20407;-77
2023/09/08 10:39:51;;;;;;;16.50;12.27;;;;;;;31.87;46.16;101771.06;5012011;28;20045;-79
2023/09/08 10:42:20;;;;;;;13.00;10.18;;;;;;;32.38;45.57;101772.38;5012592;28;20055;-78
2023/09/08 10:44:51;;;;;;;12.88;10.50;;;;;;;32.54;44.21;101765.88;5017959;28;20119;-80
2023/09/08 10:47:22;;;;;;;15.20;10.45;;;;;;;32.51;44.31;101765.22;5011481;28;20034;-77
2023/09/08 10:49:50;;;;;;;18.15;10.50;;;;;;;32.33;44.34;101767.22;5011908;28;20038;-79
2023/09/08 10:52:16;;;;;;;15.73;9.10;;;;;;;32.60;43.95;101764.59;5010505;28;20048;-79
2023/09/08 10:54:48;;;;;;;14.85;9.77;;;;;;;32.45;45.38;101760.22;5010796;28;20061;-80
2023/09/08 10:57:32;;;;;;;16.42;10.30;;;;;;;32.22;44.75;101762.53;5011482;28;20037;-79
2023/09/08 11:00:01;;;;;;;13.73;9.98;;;;;;;31.90;45.39;101769.03;5012932;28;20034;-79
2023/09/08 11:02:43;;;;;;;13.63;9.20;;;;;;;32.48;43.86;101763.56;5029695;28;20038;-77
2023/09/08 11:05:10;;;;;;;15.00;9.43;;;;;;;32.58;43.53;101764.69;5012637;28;20533;-79
2023/09/08 11:07:41;;;;;;;14.65;9.90;;;;;;;32.08;44.46;101767.03;5011392;28;20030;-79
2023/09/08 11:10:13;;;;;;;14.10;9.00;;;;;;;32.31;45.09;101765.63;5011108;28;20034;-80